Time;durP1;ratioP1;P1;durP2;ratioP2;P2;SDS_P1;SDS_P2;PMS_P1;PMS_P2;Temp;Humidity;BMP_temperature;BMP_pressure;BME280_temperature;BME280_humidity;BME280_pressure;Samples;Min_cycle;Max_cycle;Signal;HPM_P1;HPM_P2
2022/09/21 00:00:39;;;;;;;4.78;4.28;;;15.80;58.80;;;;;;5044700;28;20206;-75
2022/09/21 00:03:06;;;;;;;5.20;4.25;;;15.80;58.80;;;;;;5053303;28;20041;-76
2022/09/21 00:05:32;;;;;;;4.55;4.15;;;15.70;58.60;;;;;;5054175;28;20032;-74
2022/09/21 00:08:05;;;;;;;4.55;4.05;;;15.70;58.70;;;;;;5053896;28;20029;-75
2022/09/21 00:10:32;;;;;;;5.47;4.88;;;15.70;58.80;;;;;;5054077;28;20035;-74
2022/09/21 00:13:00;;;;;;;8.50;4.82;;;15.80;58.90;;;;;;5054869;28;20031;-74
2022/09/21 00:15:26;;;;;;;5.95;4.47;;;15.70;58.80;;;;;;5053296;28;20080;-75
2022/09/21 00:17:53;;;;;;;4.18;3.78;;;15.80;59.10;;;;;;5037752;28;20150;-74
2022/09/21 00:20:20;;;;;;;4.32;3.92;;;15.80;59.10;;;;;;5038553;28;20264;-74
2022/09/21 00:22:47;;;;;;;4.13;3.67;;;15.70;59.00;;;;;;5027993;28;20041;-75
2022/09/21 00:25:13;;;;;;;4.63;4.18;;;15.70;59.00;;;;;;5043584;28;20037;-75
2022/09/21 00:27:39;;;;;;;5.32;4.28;;;15.70;59.10;;;;;;5052087;28;20044;-74
2022/09/21 00:30:10;;;;;;;4.30;3.85;;;15.70;59.20;;;;;;5045337;28;20047;-74
2022/09/21 00:32:38;;;;;;;4.93;3.95;;;15.70;59.30;;;;;;5051333;28;20036;-75
2022/09/21 00:35:06;;;;;;;5.15;4.65;;;15.70;59.30;;;;;;5045702;28;20033;-75
2022/09/21 00:37:34;;;;;;;6.47;4.10;;;15.70;59.40;;;;;;5047337;28;20112;-75
2022/09/21 00:40:01;;;;;;;6.10;5.07;;;15.70;59.40;;;;;;5044839;28;20039;-76
2022/09/21 00:42:30;;;;;;;5.55;4.47;;;15.70;59.50;;;;;;5053297;28;20074;-75
2022/09/21 00:44:59;;;;;;;4.80;4.05;;;15.70;59.60;;;;;;5032481;28;20459;-76
2022/09/21 00:47:43;;;;;;;4.35;3.95;;;15.70;59.60;;;;;;5043458;28;20032;-74
2022/09/21 00:50:14;;;;;;;4.95;4.45;;;15.70;59.80;;;;;;5048169;28;20465;-75
2022/09/21 00:52:43;;;;;;;4.30;3.65;;;15.70;59.70;;;;;;5055487;28;20484;-76
2022/09/21 00:55:24;;;;;;;4.65;4.05;;;15.70;59.70;;;;;;5045739;28;20028;-76
2022/09/21 00:57:55;;;;;;;5.18;3.97;;;15.70;59.80;;;;;;5047150;28;20037;-76
2022/09/21 01:00:21;;;;;;;4.35;3.95;;;15.70;59.80;;;;;;5053051;28;20033;-76
2022/09/21 01:02:48;;;;;;;5.38;4.30;;;15.70;59.80;;;;;;5051803;28;20033;-75
2022/09/21 01:05:13;;;;;;;5.32;4.28;;;15.70;59.90;;;;;;5053259;28;20561;-76
2022/09/21 01:07:44;;;;;;;4.40;4.00;;;15.70;59.90;;;;;;5050722;28;20041;-75
2022/09/21 01:10:13;;;;;;;4.05;3.65;;;15.70;60.00;;;;;;5050076;28;20028;-77
2022/09/21 01:12:45;;;;;;;4.90;3.72;;;15.70;60.10;;;;;;5044776;28;20033;-75
2022/09/21 01:15:41;;;;;;;4.88;4.07;;;15.70;60.20;;;;;;5048112;28;20034;-75
2022/09/21 01:18:20;;;;;;;4.35;3.95;;;15.60;60.10;;;;;;5045298;28;20116;-76
2022/09/21 01:21:14;;;;;;;5.38;3.80;;;15.60;60.10;;;;;;5045255;28;20055;-77
2022/09/21 01:23:58;;;;;;;4.97;4.45;;;15.60;60.20;;;;;;5043912;28;20032;-74
2022/09/21 01:26:47;;;;;;;4.65;4.18;;;15.60;60.20;;;;;;5046566;28;20029;-75
2022/09/21 01:29:20;;;;;;;4.90;4.10;;;15.60;60.20;;;;;;5041530;28;20036;-75
2022/09/21 01:31:58;;;;;;;4.80;4.40;;;15.60;60.30;;;;;;5048614;28;20035;-76
2022/09/21 01:34:35;;;;;;;5.32;4.03;;;15.60;60.30;;;;;;5047608;28;20480;-75
2022/09/21 01:37:11;;;;;;;6.15;4.75;;;15.60;60.40;;;;;;5040851;28;20033;-76
2022/09/21 01:39:42;;;;;;;7.28;4.70;;;15.60;60.50;;;;;;5042036;28;20032;-76
2022/09/21 01:42:09;;;;;;;4.90;4.13;;;15.60;60.50;;;;;;5028019;28;20380;-75
2022/09/21 01:44:39;;;;;;;5.13;4.63;;;15.60;60.50;;;;;;5055761;28;20024;-76
2022/09/21 01:47:09;;;;;;;5.32;4.65;;;15.60;60.60;;;;;;5052492;28;20029;-75
2022/09/21 01:49:38;;;;;;;5.65;4.20;;;15.60;60.60;;;;;;5046501;28;20105;-75
2022/09/21 01:52:10;;;;;;;4.47;4.07;;;15.60;60.70;;;;;;5049560;28;20041;-76
2022/09/21 01:54:45;;;;;;;4.45;4.05;;;15.60;60.80;;;;;;5045820;28;20047;-76
2022/09/21 01:57:24;;;;;;;4.57;3.83;;;15.60;60.80;;;;;;5052368;28;20225;-74
2022/09/21 01:59:56;;;;;;;4.65;4.20;;;15.60;60.80;;;;;;5050093;28;20032;-75
2022/09/21 02:02:34;;;;;;;4.80;4.40;;;15.60;60.90;;;;;;5057963;28;20387;-75
2022/09/21 02:05:01;;;;;;;5.70;3.97;;;15.60;61.00;;;;;;5049716;28;20262;-75
2022/09/21 02:07:28;;;;;;;5.10;4.60;;;15.60;60.90;;;;;;5047855;28;20598;-76
2022/09/21 02:09:55;;;;;;;5.03;4.45;;;15.60;61.00;;;;;;5052430;28;20029;-74
2022/09/21 02:12:21;;;;;;;4.45;3.83;;;15.60;61.10;;;;;;5051604;28;20446;-75
2022/09/21 02:14:54;;;;;;;5.15;4.22;;;15.60;61.10;;;;;;5050213;28;20279;-75
2022/09/21 02:17:23;;;;;;;5.70;5.15;;;15.60;61.20;;;;;;5047121;28;20028;-74
2022/09/21 02:20:01;;;;;;;4.80;4.22;;;15.60;61.20;;;;;;5053595;28;20039;-76
2022/09/21 02:22:42;;;;;;;5.13;4.63;;;15.60;61.30;;;;;;5046489;28;20037;-76
2022/09/21 02:25:30;;;;;;;5.43;4.93;;;15.60;61.40;;;;;;5056070;28;20029;-77
2022/09/21 02:28:05;;;;;;;4.93;4.38;;;15.60;61.60;;;;;;5065255;28;20455;-76
2022/09/21 02:30:34;;;;;;;4.70;4.30;;;15.60;61.50;;;;;;5038840;28;20033;-75
2022/09/21 02:33:11;;;;;;;5.45;4.95;;;15.50;61.40;;;;;;5050423;28;20437;-75
2022/09/21 02:36:00;;;;;;;6.43;4.85;;;15.60;61.60;;;;;;5056485;28;20041;-75
2022/09/21 02:38:35;;;;;;;5.60;4.57;;;15.50;61.60;;;;;;5056272;28;20048;-75
2022/09/21 02:41:07;;;;;;;5.55;4.55;;;15.50;61.50;;;;;;5050823;28;20025;-75
2022/09/21 02:43:42;;;;;;;5.77;5.17;;;15.50;61.60;;;;;;5048184;28;20388;-74
2022/09/21 02:46:17;;;;;;;6.63;4.90;;;15.40;61.60;;;;;;5051771;28;20266;-74
2022/09/21 02:48:48;;;;;;;5.00;4.50;;;15.40;61.70;;;;;;5045946;28;20029;-74
2022/09/21 02:51:40;;;;;;;5.07;4.57;;;15.40;61.80;;;;;;5032441;28;20527;-74
2022/09/21 02:54:10;;;;;;;5.05;4.55;;;15.40;61.80;;;;;;5062904;28;20040;-75
2022/09/21 02:56:38;;;;;;;5.30;4.80;;;15.40;61.90;;;;;;5054988;28;20146;-75
2022/09/21 02:59:04;;;;;;;5.00;4.50;;;15.40;61.90;;;;;;5060395;28;20043;-75
2022/09/21 03:01:32;;;;;;;5.40;4.90;;;15.40;62.00;;;;;;5054150;28;20029;-75
2022/09/21 03:03:59;;;;;;;5.28;4.63;;;15.40;62.10;;;;;;5051151;28;20024;-75
2022/09/21 03:06:25;;;;;;;6.05;5.45;;;15.40;62.20;;;;;;5049493;28;20032;-75
2022/09/21 03:08:51;;;;;;;5.75;4.85;;;15.40;62.20;;;;;;5054307;28;20031;-75
2022/09/21 03:11:19;;;;;;;5.05;4.40;;;15.40;62.30;;;;;;5040361;28;20034;-75
2022/09/21 03:13:45;;;;;;;6.95;5.70;;;15.40;62.30;;;;;;5057480;28;20036;-74
2022/09/21 03:16:11;;;;;;;5.25;4.75;;;15.40;62.40;;;;;;5053027;28;20078;-74
2022/09/21 03:18:41;;;;;;;6.53;5.07;;;15.30;62.20;;;;;;5044508;28;20032;-74
2022/09/21 03:21:07;;;;;;;5.40;4.68;;;15.40;62.50;;;;;;5055213;28;20037;-74
2022/09/21 03:23:33;;;;;;;5.82;4.90;;;15.30;62.40;;;;;;5053680;28;20537;-75
2022/09/21 03:25:59;;;;;;;5.30;4.80;;;15.30;62.40;;;;;;5044727;28;20027;-74
2022/09/21 03:28:25;;;;;;;5.40;4.90;;;15.30;62.50;;;;;;5049251;28;20051;-72
2022/09/21 03:30:52;;;;;;;5.78;5.15;;;15.30;62.60;;;;;;5031750;28;20393;-75
2022/09/21 03:33:19;;;;;;;5.35;4.85;;;15.30;62.60;;;;;;5050928;28;20029;-76
2022/09/21 03:35:49;;;;;;;5.03;4.63;;;15.30;62.70;;;;;;5048350;28;20595;-76
2022/09/21 03:38:19;;;;;;;5.47;4.93;;;15.20;62.60;;;;;;5053870;28;20411;-76
2022/09/21 03:40:45;;;;;;;5.90;5.15;;;15.20;62.70;;;;;;5044624;28;20037;-76
2022/09/21 03:43:12;;;;;;;5.18;4.68;;;15.20;62.70;;;;;;5049123;28;20033;-75
2022/09/21 03:45:44;;;;;;;6.57;5.93;;;15.10;62.60;;;;;;5049539;28;20055;-76
2022/09/21 03:48:11;;;;;;;5.75;5.13;;;15.10;62.80;;;;;;5037818;28;20075;-76
2022/09/21 03:50:37;;;;;;;6.35;4.85;;;15.00;62.60;;;;;;5048131;28;20109;-75
2022/09/21 03:53:04;;;;;;;5.68;5.07;;;15.00;62.80;;;;;;5029678;28;20044;-74
2022/09/21 03:55:30;;;;;;;5.85;5.25;;;15.00;62.90;;;;;;5036372;28;21006;-75
2022/09/21 03:57:56;;;;;;;5.45;4.85;;;14.90;62.80;;;;;;5048832;28;20037;-75
2022/09/21 04:00:23;;;;;;;5.90;5.40;;;14.90;62.90;;;;;;5050551;28;20033;-75
2022/09/21 04:02:49;;;;;;;5.70;5.15;;;14.80;62.90;;;;;;5042276;28;20130;-75
2022/09/21 04:05:16;;;;;;;6.45;5.78;;;14.80;62.90;;;;;;5048929;28;20029;-74
2022/09/21 04:07:44;;;;;;;6.45;4.88;;;14.80;63.00;;;;;;5047616;28;20041;-75
2022/09/21 04:10:14;;;;;;;5.28;4.78;;;14.70;62.90;;;;;;5050166;28;20021;-76
2022/09/21 04:12:42;;;;;;;5.65;4.82;;;14.60;62.80;;;;;;5048880;28;20086;-75
2022/09/21 04:15:12;;;;;;;5.07;4.35;;;14.60;62.90;;;;;;5043691;28;20059;-74
2022/09/21 04:17:38;;;;;;;4.90;4.43;;;14.60;63.00;;;;;;5048977;28;20033;-75
2022/09/21 04:20:05;;;;;;;5.93;5.32;;;14.60;63.00;;;;;;5049193;28;20345;-74
2022/09/21 04:22:32;;;;;;;5.40;4.60;;;14.50;62.90;;;;;;5053995;28;20024;-76
2022/09/21 04:24:58;;;;;;;5.82;4.88;;;14.50;63.00;;;;;;5052282;28;20033;-75
2022/09/21 04:27:24;;;;;;;6.63;5.75;;;14.50;63.00;;;;;;5053461;28;20029;-74
2022/09/21 04:29:51;;;;;;;5.22;4.72;;;14.40;62.90;;;;;;5054157;28;20455;-76
2022/09/21 04:32:17;;;;;;;4.57;4.18;;;14.40;63.00;;;;;;5052358;28;20033;-76
2022/09/21 04:34:44;;;;;;;7.57;4.80;;;14.40;63.10;;;;;;5053395;28;20099;-75
2022/09/21 04:37:11;;;;;;;5.43;4.93;;;14.30;63.00;;;;;;5053340;28;20037;-76
2022/09/21 04:39:37;;;;;;;5.57;5.07;;;14.30;63.00;;;;;;5053495;28;20045;-75
2022/09/21 04:42:04;;;;;;;4.68;4.18;;;14.20;62.90;;;;;;5040035;28;20026;-76
2022/09/21 04:44:30;;;;;;;5.03;4.53;;;14.20;62.90;;;;;;5053416;28;20036;-74
2022/09/21 04:46:57;;;;;;;5.68;4.82;;;14.20;63.00;;;;;;5056265;28;20025;-74
2022/09/21 04:49:23;;;;;;;5.30;4.80;;;14.10;62.90;;;;;;5041598;28;20033;-76
2022/09/21 04:51:49;;;;;;;5.22;4.75;;;14.00;62.80;;;;;;5041638;28;20485;-75
2022/09/21 04:54:15;;;;;;;5.03;4.53;;;14.00;62.80;;;;;;5027269;28;20113;-76
2022/09/21 04:56:41;;;;;;;4.65;4.22;;;13.90;62.80;;;;;;5048836;28;20021;-76
2022/09/21 04:59:07;;;;;;;4.25;3.85;;;13.90;62.80;;;;;;5051274;28;20101;-75
2022/09/21 05:01:33;;;;;;;5.70;5.10;;;13.90;62.90;;;;;;5055050;28;20020;-76
2022/09/21 05:04:01;;;;;;;5.13;4.15;;;13.80;62.80;;;;;;5053797;28;20021;-75
2022/09/21 05:06:28;;;;;;;4.97;4.28;;;13.70;62.70;;;;;;5051515;28;20149;-76
2022/09/21 05:11:40;;;;;;;4.18;3.78;;;13.70;62.90;;;;;;5048997;28;20042;-74
2022/09/21 05:14:06;;;;;;;3.60;3.30;;;13.60;62.70;;;;;;5056308;28;20029;-74
2022/09/21 05:16:33;;;;;;;3.83;3.53;;;13.60;62.80;;;;;;5053684;28;20398;-76
2022/09/21 05:18:59;;;;;;;4.43;3.53;;;13.60;62.80;;;;;;5051077;28;20226;-75
2022/09/21 05:21:25;;;;;;;3.50;3.20;;;13.50;62.70;;;;;;5045654;28;20353;-75
2022/09/21 05:23:53;;;;;;;3.90;3.60;;;13.50;62.80;;;;;;5035010;28;20045;-78
2022/09/21 05:26:19;;;;;;;4.05;3.10;;;13.50;62.80;;;;;;5049179;28;20018;-78
2022/09/21 05:28:45;;;;;;;3.78;3.28;;;13.40;62.70;;;;;;5049587;28;20510;-79
2022/09/21 05:31:34;;;;;;;3.03;2.72;;;13.40;62.70;;;;;;5049038;28;20033;-78
2022/09/21 05:34:05;;;;;;;3.30;3.00;;;13.30;62.70;;;;;;5052223;28;20032;-74
2022/09/21 05:37:02;;;;;;;3.75;3.45;;;13.20;62.60;;;;;;5047200;28;20037;-77
2022/09/21 05:39:31;;;;;;;5.80;3.17;;;13.20;62.80;;;;;;5049921;28;20037;-76
2022/09/21 05:41:57;;;;;;;3.83;3.50;;;13.20;62.70;;;;;;5048800;28;20510;-76
2022/09/21 05:44:23;;;;;;;4.15;3.78;;;13.10;62.60;;;;;;5033374;28;20029;-76
2022/09/21 05:46:52;;;;;;;4.32;3.00;;;13.10;62.70;;;;;;5050446;28;20029;-76
2022/09/21 05:49:35;;;;;;;3.72;3.25;;;13.10;62.80;;;;;;5044267;28;20074;-77
2022/09/21 05:52:19;;;;;;;4.45;3.50;;;13.10;62.90;;;;;;5041769;28;20045;-76
2022/09/21 05:55:04;;;;;;;4.05;3.65;;;13.00;62.80;;;;;;5051884;28;20381;-80
2022/09/21 05:57:53;;;;;;;4.53;4.13;;;13.00;62.90;;;;;;5057512;28;20443;-79
2022/09/21 06:00:22;;;;;;;4.57;4.13;;;13.00;63.20;;;;;;5040468;28;20025;-75
2022/09/21 06:03:27;;;;;;;5.85;5.15;;;13.10;63.30;;;;;;5055556;28;20078;-75
2022/09/21 06:05:53;;;;;;;4.47;4.07;;;13.10;63.70;;;;;;5056516;28;20034;-77
2022/09/21 06:08:19;;;;;;;6.28;4.70;;;13.10;63.40;;;;;;5048995;28;20033;-77
2022/09/21 06:10:45;;;;;;;4.30;3.90;;;13.00;63.30;;;;;;5048836;28;20294;-76
2022/09/21 06:13:11;;;;;;;4.90;4.38;;;13.00;63.40;;;;;;5046077;28;20029;-74
2022/09/21 06:15:37;;;;;;;4.40;4.00;;;13.00;63.40;;;;;;5029575;28;20427;-75
2022/09/21 06:18:07;;;;;;;4.60;4.20;;;13.00;63.50;;;;;;5041805;28;20657;-76
2022/09/21 06:20:34;;;;;;;4.38;3.85;;;13.00;63.60;;;;;;5048253;28;20054;-78
2022/09/21 06:23:09;;;;;;;4.20;3.80;;;13.00;63.60;;;;;;5047866;28;20697;-76
2022/09/21 06:25:36;;;;;;;4.43;3.92;;;13.00;63.80;;;;;;5043579;28;20041;-77
2022/09/21 06:28:08;;;;;;;4.45;4.05;;;13.00;63.80;;;;;;5027648;28;20329;-77
2022/09/21 06:30:35;;;;;;;5.18;3.50;;;13.10;64.10;;;;;;5043097;28;20040;-78
2022/09/21 06:33:03;;;;;;;5.78;3.88;;;13.00;63.80;;;;;;5056381;28;20062;-76
2022/09/21 06:35:31;;;;;;;4.63;4.22;;;13.10;64.00;;;;;;5062588;28;20028;-77
2022/09/21 06:38:01;;;;;;;5.40;4.47;;;13.10;64.00;;;;;;5040397;28;20044;-75
2022/09/21 06:40:28;;;;;;;4.82;4.25;;;13.20;64.20;;;;;;5061377;28;20020;-76
2022/09/21 06:42:59;;;;;;;5.88;5.28;;;13.20;64.10;;;;;;5045208;28;20043;-74
2022/09/21 06:45:26;;;;;;;5.18;4.43;;;13.20;64.10;;;;;;5051652;28;20557;-77
2022/09/21 06:47:52;;;;;;;4.55;4.15;;;13.30;64.20;;;;;;5046305;28;20200;-76
2022/09/21 06:50:19;;;;;;;5.28;4.78;;;13.40;64.30;;;;;;5039615;28;20056;-76
2022/09/21 06:52:45;;;;;;;5.90;4.88;;;13.40;64.20;;;;;;5044236;28;20052;-75
2022/09/21 06:55:11;;;;;;;6.88;4.70;;;13.40;64.20;;;;;;5045650;28;20029;-76
2022/09/21 06:57:38;;;;;;;5.72;4.78;;;13.50;64.40;;;;;;5043523;28;20039;-76
2022/09/21 07:00:06;;;;;;;5.78;4.65;;;13.50;64.30;;;;;;5047329;28;20590;-76
2022/09/21 07:02:33;;;;;;;5.68;5.18;;;13.50;64.30;;;;;;5035537;28;20107;-77
2022/09/21 07:05:00;;;;;;;6.03;5.43;;;13.60;64.40;;;;;;5066928;28;20048;-75
2022/09/21 07:07:30;;;;;;;6.97;4.90;;;13.60;64.40;;;;;;5055194;28;20387;-76
2022/09/21 07:10:02;;;;;;;6.22;5.63;;;13.70;64.60;;;;;;5048767;28;20172;-78
2022/09/21 07:12:28;;;;;;;7.30;5.55;;;13.70;64.50;;;;;;5055938;28;20052;-77
2022/09/21 07:14:54;;;;;;;7.35;6.65;;;13.80;64.60;;;;;;5069159;28;20064;-78
2022/09/21 07:17:20;;;;;;;8.18;5.85;;;13.80;64.60;;;;;;5048624;28;20037;-76
2022/09/21 07:19:46;;;;;;;6.55;5.95;;;13.90;64.70;;;;;;5053266;28;20055;-77
2022/09/21 07:22:13;;;;;;;6.40;5.80;;;14.00;64.80;;;;;;5045845;28;20033;-76
2022/09/21 07:24:39;;;;;;;6.47;5.80;;;14.00;64.70;;;;;;5056284;28;20071;-77
2022/09/21 07:27:05;;;;;;;6.15;5.63;;;14.10;64.80;;;;;;5059400;28;20029;-77
2022/09/21 07:29:31;;;;;;;6.60;5.95;;;14.20;64.90;;;;;;5044449;28;20032;-76
2022/09/21 07:31:57;;;;;;;7.13;5.97;;;14.30;65.00;;;;;;5049450;28;20100;-76
2022/09/21 07:34:23;;;;;;;6.53;5.93;;;14.40;65.10;;;;;;5051730;28;20028;-76
2022/09/21 07:36:49;;;;;;;6.63;5.68;;;14.50;65.10;;;;;;5055747;28;20375;-78
2022/09/21 07:39:15;;;;;;;7.45;6.28;;;14.60;65.20;;;;;;5055623;28;20048;-76
2022/09/21 07:41:42;;;;;;;8.52;6.35;;;14.70;65.20;;;;;;5050933;28;20025;-76
2022/09/21 07:44:08;;;;;;;7.53;5.93;;;14.80;65.30;;;;;;5049997;28;20553;-77
2022/09/21 07:46:35;;;;;;;7.13;5.88;;;14.90;65.30;;;;;;5057246;28;20037;-78
2022/09/21 07:49:04;;;;;;;8.13;6.68;;;15.00;65.30;;;;;;5042001;28;20031;-77
2022/09/21 07:51:30;;;;;;;6.45;5.85;;;15.20;65.50;;;;;;5044314;28;20055;-77
2022/09/21 07:53:56;;;;;;;6.75;5.85;;;15.30;65.50;;;;;;5058939;28;20194;-78
2022/09/21 07:56:22;;;;;;;7.13;5.90;;;15.40;65.50;;;;;;5051356;28;20040;-75
2022/09/21 07:59:07;;;;;;;7.38;6.03;;;15.50;65.50;;;;;;5045491;28;20037;-75
2022/09/21 08:01:33;;;;;;;8.10;6.53;;;15.60;65.50;;;;;;5046046;28;20024;-77
2022/09/21 08:04:00;;;;;;;7.45;6.65;;;15.80;65.70;;;;;;5067639;28;20043;-75
2022/09/21 08:06:29;;;;;;;7.43;6.15;;;15.90;65.70;;;;;;5048089;28;20028;-78
2022/09/21 08:08:55;;;;;;;10.88;6.40;;;16.00;65.80;;;;;;5033914;28;20040;-77
2022/09/21 08:11:22;;;;;;;8.05;7.28;;;16.10;65.90;;;;;;5051837;28;20394;-77
2022/09/21 08:13:52;;;;;;;7.50;6.65;;;16.20;66.10;;;;;;5017264;28;20037;-77
2022/09/21 08:16:18;;;;;;;8.80;7.18;;;16.20;66.10;;;;;;5059417;28;20370;-78
2022/09/21 08:18:44;;;;;;;8.32;6.97;;;16.40;66.40;;;;;;5014959;28;20074;-80
2022/09/21 08:21:12;;;;;;;9.38;7.55;;;16.40;66.40;;;;;;5044939;28;20022;-78
2022/09/21 08:23:41;;;;;;;7.18;6.53;;;16.60;66.80;;;;;;5060378;28;20037;-75
2022/09/21 08:26:11;;;;;;;8.38;7.50;;;16.60;66.70;;;;;;5050224;28;20035;-75
2022/09/21 08:28:37;;;;;;;8.75;6.88;;;16.70;66.90;;;;;;5059873;28;20032;-74
2022/09/21 08:31:07;;;;;;;8.25;7.45;;;16.90;67.10;;;;;;5044005;28;20025;-75
2022/09/21 08:33:34;;;;;;;7.28;6.57;;;17.00;67.30;;;;;;5050616;28;20029;-79
2022/09/21 08:36:00;;;;;;;9.07;8.15;;;17.10;67.30;;;;;;5041490;28;20041;-76
2022/09/21 08:38:31;;;;;;;8.73;7.22;;;17.20;67.20;;;;;;5049833;28;20044;-78
2022/09/21 08:41:01;;;;;;;7.45;6.75;;;17.30;67.30;;;;;;5051302;28;20507;-77
2022/09/21 08:43:39;;;;;;;8.10;7.30;;;17.50;67.40;;;;;;5059282;28;20162;-78
2022/09/21 08:46:10;;;;;;;8.05;7.25;;;17.60;67.40;;;;;;5044259;28;20033;-78
2022/09/21 08:48:44;;;;;;;8.63;7.22;;;17.70;67.30;;;;;;5042210;28;20029;-78
2022/09/21 08:51:16;;;;;;;8.77;7.82;;;17.90;67.40;;;;;;5029774;28;20489;-79
2022/09/21 08:53:46;;;;;;;8.75;7.80;;;18.00;67.20;;;;;;4997265;28;20097;-78
2022/09/21 08:56:14;;;;;;;7.72;6.97;;;18.10;67.10;;;;;;5016339;28;20028;-77
2022/09/21 08:58:42;;;;;;;8.27;6.80;;;18.30;67.10;;;;;;5030988;28;20041;-78
2022/09/21 09:01:23;;;;;;;8.35;7.10;;;18.40;66.90;;;;;;5037655;28;20439;-78
2022/09/21 09:03:52;;;;;;;8.75;7.68;;;18.50;66.80;;;;;;5054490;28;20644;-79
2022/09/21 09:06:46;;;;;;;7.85;6.80;;;18.70;66.70;;;;;;5048032;28;20036;-81
2022/09/21 09:09:20;;;;;;;8.60;7.68;;;18.90;66.70;;;;;;5046176;28;20086;-76
2022/09/21 09:12:02;;;;;;;7.28;6.57;;;19.00;66.40;;;;;;5054912;28;20021;-75
2022/09/21 09:15:06;;;;;;;8.85;7.38;;;19.20;66.30;;;;;;5046333;28;20025;-76
2022/09/21 09:17:40;;;;;;;;;;;19.40;66.20;;;;;;5045404;28;20037;-76
2022/09/21 09:20:28;;;;;;;8.77;6.47;;;19.50;66.00;;;;;;5045319;28;20281;-74
2022/09/21 09:23:10;;;;;;;7.47;6.78;;;19.70;65.80;;;;;;5039949;28;20034;-76
2022/09/21 09:25:40;;;;;;;6.82;6.22;;;19.80;65.60;;;;;;5047343;28;20033;-78
2022/09/21 09:28:39;;;;;;;11.10;7.22;;;20.00;65.60;;;;;;5046350;28;20051;-77
2022/09/21 09:31:27;;;;;;;7.57;6.88;;;20.10;65.30;;;;;;5041246;28;20029;-76
2022/09/21 09:34:09;;;;;;;9.20;6.80;;;20.30;65.20;;;;;;5051002;28;20078;-78
2022/09/21 09:36:35;;;;;;;7.93;6.75;;;20.40;64.90;;;;;;5031588;28;20033;-77
2022/09/21 09:39:12;;;;;;;6.72;6.07;;;20.50;64.80;;;;;;5049501;28;20041;-76
2022/09/21 09:41:57;;;;;;;7.15;6.40;;;20.60;64.50;;;;;;5012696;28;20032;-77
2022/09/21 09:44:50;;;;;;;7.03;6.35;;;20.70;64.30;;;;;;5049502;28;20376;-78
2022/09/21 09:47:43;;;;;;;7.13;5.72;;;20.90;64.30;;;;;;5037448;28;20033;-76
2022/09/21 09:50:37;;;;;;;10.70;6.68;;;21.00;63.90;;;;;;5008906;28;1118024;-78
2022/09/21 09:53:30;;;;;;;6.80;5.53;;;21.10;63.70;;;;;;5046247;28;20052;-78
2022/09/21 09:55:57;;;;;;;6.50;5.72;;;21.30;63.50;;;;;;5044964;28;20037;-77
2022/09/21 09:58:35;;;;;;;6.15;5.32;;;21.40;63.50;;;;;;5045141;28;20041;-77
2022/09/21 10:01:02;;;;;;;6.30;5.70;;;21.60;63.40;;;;;;5046016;28;20033;-78
2022/09/21 10:03:28;;;;;;;10.52;5.40;;;21.70;63.20;;;;;;5039726;28;20326;-77
2022/09/21 10:05:54;;;;;;;10.38;5.10;;;21.80;62.80;;;;;;5046952;28;20036;-77
2022/09/21 10:08:42;;;;;;;10.73;5.28;;;21.90;62.60;;;;;;5043507;28;20033;-76
2022/09/21 10:11:12;;;;;;;7.43;5.70;;;22.00;62.20;;;;;;5044427;28;20022;-77
2022/09/21 10:13:44;;;;;;;9.63;5.72;;;22.00;62.10;;;;;;5025972;28;20515;-76
2022/09/21 10:16:22;;;;;;;5.45;4.95;;;22.00;61.90;;;;;;5036099;28;20029;-76
2022/09/21 10:18:55;;;;;;;5.18;4.68;;;22.00;61.70;;;;;;5045438;28;20040;-75
2022/09/21 10:21:38;;;;;;;5.53;4.57;;;22.00;61.70;;;;;;5039910;28;20387;-75
2022/09/21 10:24:28;;;;;;;5.90;5.30;;;21.90;61.30;;;;;;5047468;28;20036;-75
2022/09/21 10:27:02;;;;;;;9.13;5.15;;;21.80;61.30;;;;;;5046691;28;20041;-76
2022/09/21 10:29:31;;;;;;;5.35;4.47;;;21.70;61.20;;;;;;5040148;28;20087;-76
2022/09/21 10:32:00;;;;;;;6.57;5.43;;;21.50;61.10;;;;;;5048973;28;20032;-76
2022/09/21 10:34:32;;;;;;;5.13;4.20;;;21.40;61.00;;;;;;5044655;28;20033;-76
2022/09/21 10:37:02;;;;;;;5.28;4.65;;;21.40;61.20;;;;;;5045583;28;20036;-77
2022/09/21 10:39:29;;;;;;;4.95;3.92;;;21.30;61.00;;;;;;5043898;28;20919;-75
2022/09/21 10:42:06;;;;;;;4.93;4.03;;;21.30;61.10;;;;;;5029906;28;20508;-76
2022/09/21 10:44:39;;;;;;;4.78;4.00;;;21.20;60.90;;;;;;5046138;28;20516;-76
2022/09/21 10:47:19;;;;;;;4.22;3.70;;;21.20;60.80;;;;;;5053775;28;20033;-78
2022/09/21 10:49:54;;;;;;;4.63;4.13;;;21.20;60.80;;;;;;5051759;28;20075;-75
2022/09/21 10:52:34;;;;;;;5.22;3.90;;;21.20;60.70;;;;;;5048671;28;20021;-76
2022/09/21 10:55:01;;;;;;;4.38;3.55;;;21.20;60.30;;;;;;5053005;28;20438;-77
2022/09/21 10:57:29;;;;;;;4.25;3.17;;;21.20;60.30;;;;;;5048540;28;20462;-77
2022/09/21 10:59:56;;;;;;;3.92;3.30;;;21.20;60.10;;;;;;5043998;28;20055;-76
2022/09/21 11:02:31;;;;;;;3.40;3.10;;;21.20;59.90;;;;;;5060932;28;20021;-76
2022/09/21 11:05:14;;;;;;;3.72;3.38;;;21.30;59.80;;;;;;5039303;28;20028;-78
2022/09/21 11:08:00;;;;;;;3.40;3.10;;;21.40;59.80;;;;;;5035309;28;20392;-77
2022/09/21 11:10:29;;;;;;;3.17;2.88;;;21.40;59.40;;;;;;5050929;28;20062;-75
2022/09/21 11:13:27;;;;;;;4.65;3.28;;;21.50;59.60;;;;;;5018498;28;20062;-74
2022/09/21 11:16:24;;;;;;;3.65;3.22;;;21.50;59.10;;;;;;5046144;28;20031;-75
2022/09/21 11:19:16;;;;;;;4.32;3.17;;;21.60;58.90;;;;;;5041670;28;20040;-75
2022/09/21 11:22:01;;;;;;;5.93;3.33;;;21.70;58.90;;;;;;5036960;28;20031;-76
2022/09/21 11:24:42;;;;;;;3.38;3.08;;;21.80;58.60;;;;;;5046221;28;20037;-76
2022/09/21 11:27:23;;;;;;;3.78;3.38;;;21.90;58.50;;;;;;5045605;28;20387;-76
2022/09/21 11:29:58;;;;;;;3.22;2.88;;;22.00;58.50;;;;;;5045251;28;20439;-75
2022/09/21 11:32:46;;;;;;;2.85;2.65;;;22.10;58.40;;;;;;5046399;28;20253;-75
2022/09/21 11:35:49;;;;;;;4.53;3.17;;;22.20;58.20;;;;;;5045107;28;20044;-75
2022/09/21 11:38:30;;;;;;;4.82;3.28;;;22.40;58.00;;;;;;5033703;28;20029;-76
2022/09/21 11:41:05;;;;;;;3.05;2.47;;;22.60;58.00;;;;;;5062059;28;20124;-76
2022/09/21 11:43:37;;;;;;;2.85;2.30;;;22.80;58.00;;;;;;5073779;28;20046;-75
2022/09/21 11:46:16;;;;;;;3.75;3.00;;;22.90;57.60;;;;;;5065474;28;20048;-75
2022/09/21 11:48:45;;;;;;;2.75;2.45;;;23.00;57.30;;;;;;5057362;28;20084;-76
2022/09/21 11:51:53;;;;;;;2.75;2.33;;;23.10;57.30;;;;;;5054744;28;20117;-76
2022/09/21 11:54:58;;;;;;;3.60;2.97;;;23.20;56.80;;;;;;5046212;28;20123;-75
2022/09/21 11:57:57;;;;;;;3.47;2.38;;;23.40;56.90;;;;;;5038524;28;20047;-76
2022/09/21 12:00:30;;;;;;;4.43;2.92;;;23.50;56.90;;;;;;5042187;28;20106;-77
2022/09/21 12:03:24;;;;;;;2.15;1.92;;;23.60;57.10;;;;;;5058672;28;20021;-76
2022/09/21 12:06:08;;;;;;;2.67;2.47;;;23.70;57.00;;;;;;5044064;28;20400;-77
2022/09/21 12:08:45;;;;;;;2.60;2.40;;;23.70;56.70;;;;;;5036996;28;20049;-76
2022/09/21 12:11:27;;;;;;;2.20;2.00;;;23.70;56.40;;;;;;5036151;28;20503;-77
2022/09/21 12:14:32;;;;;;;2.35;2.08;;;23.70;56.30;;;;;;5046677;28;20497;-75
2022/09/21 12:17:15;;;;;;;2.55;1.92;;;23.60;55.80;;;;;;5044316;28;20021;-75
2022/09/21 12:19:58;;;;;;;2.58;2.05;;;23.60;56.10;;;;;;5023744;28;20049;-76
2022/09/21 12:22:32;;;;;;;2.28;2.08;;;23.60;55.80;;;;;;5046301;28;20552;-75
2022/09/21 12:25:05;;;;;;;2.10;1.90;;;23.60;55.90;;;;;;5025943;28;20033;-76
2022/09/21 12:27:53;;;;;;;2.10;1.90;;;23.60;55.70;;;;;;5033932;28;20082;-75
2022/09/21 12:30:23;;;;;;;2.00;1.80;;;23.60;55.00;;;;;;5046706;28;20029;-76
2022/09/21 12:32:58;;;;;;;2.10;1.63;;;23.60;55.10;;;;;;5046972;28;20029;-76
2022/09/21 12:35:45;;;;;;;1.98;1.42;;;23.50;54.60;;;;;;5038355;28;20040;-75
2022/09/21 12:38:37;;;;;;;2.45;1.80;;;23.50;54.20;;;;;;5045071;28;20033;-75
2022/09/21 12:41:19;;;;;;;2.25;2.05;;;23.60;54.30;;;;;;5032606;28;20029;-77
2022/09/21 12:44:19;;;;;;;2.45;1.92;;;23.60;54.40;;;;;;5049196;28;20268;-76
2022/09/21 12:47:09;;;;;;;2.22;1.58;;;23.60;54.20;;;;;;5047758;28;20029;-75
2022/09/21 12:49:46;;;;;;;2.88;1.60;;;23.70;54.00;;;;;;5032532;28;20045;-77
2022/09/21 12:52:22;;;;;;;2.13;1.92;;;23.70;54.00;;;;;;5048544;28;20025;-76
2022/09/21 12:55:14;;;;;;;2.25;1.90;;;23.70;53.70;;;;;;5041965;28;20476;-76
2022/09/21 12:58:02;;;;;;;1.85;1.67;;;23.80;53.60;;;;;;5050139;28;20025;-77
2022/09/21 13:00:39;;;;;;;2.28;1.98;;;23.80;53.50;;;;;;5044378;28;20497;-76
2022/09/21 13:03:18;;;;;;;2.97;1.98;;;23.80;53.60;;;;;;5063333;28;20040;-76
2022/09/21 13:06:21;;;;;;;1.65;1.55;;;23.90;53.50;;;;;;5048714;28;20025;-76
2022/09/21 13:08:48;;;;;;;1.77;1.67;;;24.00;53.30;;;;;;5049290;28;20032;-77
2022/09/21 13:11:20;;;;;;;1.80;1.70;;;24.10;53.60;;;;;;5049054;28;20031;-77
2022/09/21 13:13:58;;;;;;;2.57;2.33;;;24.10;53.40;;;;;;5024283;28;20051;-78
2022/09/21 13:16:37;;;;;;;1.98;1.60;;;24.10;53.10;;;;;;5049117;28;20274;-77
2022/09/21 13:19:18;;;;;;;1.63;1.52;;;24.20;52.60;;;;;;5044413;28;20125;-76
2022/09/21 13:21:44;;;;;;;2.47;1.55;;;24.20;52.70;;;;;;5047922;28;20029;-76